createdAt,value
2023-03-29T00:00:33.963Z,3.700
2023-03-29T00:01:44.423Z,4.300
2023-03-29T00:03:35.317Z,4.200
2023-03-29T00:05:34.783Z,3.800
2023-03-29T00:06:33.972Z,3.800
2023-03-29T00:07:34.148Z,4.500
2023-03-29T00:08:34.318Z,4.700
2023-03-29T00:09:34.492Z,4.600
2023-03-29T00:10:34.807Z,4.000
2023-03-29T00:11:33.980Z,4.700
2023-03-29T00:12:34.252Z,4.500
2023-03-29T00:13:34.413Z,5.100
2023-03-29T00:14:34.601Z,4.600
2023-03-29T00:15:34.900Z,4.700
2023-03-29T00:16:34.189Z,4.700
2023-03-29T00:17:34.447Z,5.300
2023-03-29T00:18:34.794Z,4.800
2023-03-29T00:20:34.209Z,4.700
2023-03-29T00:21:34.981Z,4.700
2023-03-29T00:22:34.166Z,4.700
2023-03-29T00:23:34.359Z,5.300
2023-03-29T00:24:34.530Z,4.800
2023-03-29T00:25:34.775Z,5.600
2023-03-29T00:26:33.876Z,4.900
2023-03-29T00:27:34.035Z,4.900
2023-03-29T00:28:34.187Z,5.000
2023-03-29T00:29:34.326Z,4.900
2023-03-29T00:30:34.538Z,5.200
2023-03-29T00:32:34.336Z,5.000
2023-03-29T00:33:34.795Z,5.300
2023-03-29T00:34:33.973Z,5.200
2023-03-29T00:35:34.358Z,5.300
2023-03-29T00:36:34.830Z,5.700
2023-03-29T00:37:33.986Z,5.500
2023-03-29T00:38:34.134Z,5.200
2023-03-29T00:39:34.260Z,5.500
2023-03-29T00:40:34.474Z,5.000
2023-03-29T00:41:34.909Z,5.300
2023-03-29T00:42:34.139Z,4.800
2023-03-29T00:43:34.393Z,5.700
2023-03-29T00:44:34.625Z,5.600
2023-03-29T00:45:34.834Z,5.100
2023-03-29T00:47:34.515Z,5.100
2023-03-29T00:48:33.909Z,5.600
2023-03-29T00:49:34.216Z,5.200
2023-03-29T00:50:34.409Z,5.200
2023-03-29T00:51:34.995Z,5.500
2023-03-29T00:52:34.103Z,4.900
2023-03-29T00:53:34.349Z,5.600
2023-03-29T00:54:34.580Z,5.600
2023-03-29T00:55:34.744Z,5.300
2023-03-29T00:56:33.928Z,5.800
2023-03-29T00:57:34.547Z,5.000
2023-03-29T00:58:34.728Z,5.100
2023-03-29T01:00:34.240Z,6.000
2023-03-29T01:01:34.721Z,5.100
2023-03-29T01:02:33.962Z,5.600
2023-03-29T01:03:34.846Z,4.800
2023-03-29T01:05:34.599Z,5.900
2023-03-29T01:06:34.112Z,5.600
2023-03-29T01:07:34.549Z,5.100
2023-03-29T01:08:34.706Z,5.700
2023-03-29T01:10:34.404Z,6.300
2023-03-29T01:11:34.919Z,5.500
2023-03-29T01:12:34.084Z,5.200
2023-03-29T01:13:34.253Z,5.500
2023-03-29T01:14:34.521Z,5.500
2023-03-29T01:15:34.693Z,5.100
2023-03-29T01:16:33.977Z,5.700
2023-03-29T01:17:34.294Z,5.700
2023-03-29T01:18:34.690Z,6.000
2023-03-29T01:19:33.869Z,5.000
2023-03-29T01:20:34.408Z,5.400
2023-03-29T01:21:35.127Z,5.100
2023-03-29T01:22:34.215Z,5.400
2023-03-29T01:23:34.307Z,5.500
2023-03-29T01:24:34.619Z,5.500
2023-03-29T01:25:34.785Z,5.700
2023-03-29T01:26:34.081Z,5.200
2023-03-29T01:27:34.267Z,5.100
2023-03-29T01:28:34.400Z,5.200
2023-03-29T01:29:34.547Z,5.400
2023-03-29T01:30:34.843Z,5.700
2023-03-29T01:31:34.083Z,4.800
2023-03-29T01:32:34.390Z,5.600
2023-03-29T01:33:34.712Z,5.400
2023-03-29T01:34:33.845Z,5.100
2023-03-29T01:35:34.121Z,6.000
2023-03-29T01:36:34.745Z,5.400
2023-03-29T01:37:33.862Z,5.200
2023-03-29T01:38:34.073Z,5.900
2023-03-29T01:39:34.193Z,5.700
2023-03-29T01:40:34.643Z,5.400
2023-03-29T01:41:33.873Z,5.500
2023-03-29T01:42:34.105Z,5.300
2023-03-29T01:43:34.312Z,4.800
2023-03-29T01:44:34.409Z,5.300
2023-03-29T01:45:34.580Z,5.100
2023-03-29T01:46:34.265Z,5.400
2023-03-29T01:47:34.743Z,5.300
2023-03-29T01:48:34.080Z,5.000
2023-03-29T01:49:34.364Z,5.400
2023-03-29T01:50:34.714Z,5.200
2023-03-29T01:51:34.028Z,5.500
2023-03-29T01:52:34.535Z,5.100
2023-03-29T01:53:34.763Z,5.200
2023-03-29T01:54:33.957Z,5.100
2023-03-29T01:55:34.196Z,4.900
2023-03-29T01:56:34.412Z,5.300
2023-03-29T01:57:34.843Z,4.900
2023-03-29T01:58:34.152Z,5.200
2023-03-29T01:59:34.401Z,5.200
2023-03-29T02:00:34.886Z,5.200
2023-03-29T02:01:34.244Z,5.500
2023-03-29T02:02:34.775Z,5.000
2023-03-29T02:03:34.450Z,5.600
2023-03-29T02:04:34.774Z,5.400
2023-03-29T02:06:34.162Z,5.200
2023-03-29T02:07:34.353Z,5.000
2023-03-29T02:08:34.651Z,5.000
2023-03-29T02:09:33.832Z,5.600
2023-03-29T02:10:34.121Z,5.500
2023-03-29T02:11:34.719Z,4.800
2023-03-29T02:12:33.889Z,6.000
2023-03-29T02:13:33.996Z,5.200
2023-03-29T02:14:34.167Z,5.100
2023-03-29T02:15:34.354Z,4.900
2023-03-29T02:16:34.855Z,5.100
2023-03-29T02:17:34.067Z,5.200
2023-03-29T02:18:34.336Z,4.700
2023-03-29T02:19:34.519Z,5.700
2023-03-29T02:20:34.835Z,4.700
2023-03-29T02:21:34.166Z,4.900
2023-03-29T02:22:34.352Z,5.500
2023-03-29T02:23:34.650Z,5.100
2023-03-29T02:24:34.828Z,5.500
2023-03-29T02:27:34.340Z,4.700
2023-03-29T02:28:34.577Z,5.100
2023-03-29T02:29:34.829Z,5.100
2023-03-29T02:32:34.332Z,4.600
2023-03-29T02:33:34.798Z,5.300
2023-03-29T02:34:34.025Z,4.700
2023-03-29T02:35:34.406Z,5.200
2023-03-29T02:36:34.834Z,5.400
2023-03-29T02:37:33.997Z,5.500
2023-03-29T02:38:34.172Z,5.000
2023-03-29T02:39:34.353Z,4.600
2023-03-29T02:40:34.597Z,5.200
2023-03-29T02:41:33.786Z,5.400
2023-03-29T02:42:33.963Z,5.400
2023-03-29T02:43:34.191Z,5.700
2023-03-29T02:44:34.489Z,5.200
2023-03-29T02:45:34.897Z,5.600
2023-03-29T02:46:34.153Z,5.300
2023-03-29T02:47:34.645Z,4.800
2023-03-29T02:48:33.866Z,5.600
2023-03-29T02:49:34.081Z,5.100
2023-03-29T02:50:34.291Z,4.900
2023-03-29T02:51:35.956Z,5.900
2023-03-29T02:52:34.067Z,5.300
2023-03-29T02:53:34.231Z,5.500
2023-03-29T02:54:34.320Z,5.100
2023-03-29T02:55:34.657Z,5.800
2023-03-29T02:56:33.961Z,6.100
2023-03-29T02:57:34.548Z,5.500
2023-03-29T02:58:34.836Z,5.400
2023-03-29T02:59:34.179Z,5.200
2023-03-29T03:00:34.477Z,5.600
2023-03-29T03:01:35.530Z,5.600
2023-03-29T03:02:34.048Z,5.600
2023-03-29T03:03:35.756Z,5.900
2023-03-29T03:04:34.387Z,5.800
2023-03-29T03:05:34.700Z,6.200
2023-03-29T03:06:34.013Z,5.400
2023-03-29T03:07:34.384Z,5.700
2023-03-29T03:08:34.604Z,5.600
2023-03-29T03:09:34.806Z,5.300
2023-03-29T03:10:33.996Z,6.300
2023-03-29T03:11:34.504Z,6.200
2023-03-29T03:12:34.768Z,5.600
2023-03-29T03:13:34.116Z,5.900
2023-03-29T03:14:34.365Z,6.000
2023-03-29T03:15:34.722Z,5.300
2023-03-29T03:16:39.659Z,6.100
2023-03-29T03:17:43.611Z,5.700
2023-03-29T03:18:39.560Z,6.000
2023-03-29T03:19:40.010Z,6.400
2023-03-29T03:20:40.791Z,5.600
2023-03-29T03:21:41.117Z,5.500
2023-03-29T03:22:40.780Z,6.100
2023-03-29T03:23:40.968Z,6.000
2023-03-29T03:24:39.919Z,5.600
2023-03-29T03:25:40.574Z,6.600
2023-03-29T03:26:39.922Z,6.600
2023-03-29T03:27:40.227Z,6.000
2023-03-29T03:28:40.053Z,5.600
2023-03-29T03:29:40.231Z,6.500
2023-03-29T03:30:41.131Z,5.800
2023-03-29T03:31:42.256Z,5.800
2023-03-29T03:32:40.126Z,5.800
2023-03-29T03:33:41.369Z,5.600
2023-03-29T03:36:40.459Z,5.000
2023-03-29T03:37:40.984Z,5.700
2023-03-29T03:38:40.661Z,6.800
2023-03-29T03:39:39.945Z,5.900
2023-03-29T03:41:40.361Z,5.900
2023-03-29T03:43:39.957Z,5.500
2023-03-29T03:44:41.696Z,5.900
2023-03-29T03:45:40.180Z,6.000
2023-03-29T03:46:39.787Z,5.700
2023-03-29T03:47:40.775Z,6.200
2023-03-29T03:48:41.106Z,5.500
2023-03-29T03:49:40.349Z,5.300
2023-03-29T03:50:41.167Z,5.600
2023-03-29T03:53:40.183Z,5.100
2023-03-29T03:54:39.860Z,5.800
2023-03-29T03:55:40.182Z,5.400
2023-03-29T03:56:40.095Z,5.400
2023-03-29T03:58:40.447Z,5.600
2023-03-29T03:59:40.080Z,5.600
2023-03-29T04:00:40.828Z,5.200
2023-03-29T04:01:40.733Z,5.600
2023-03-29T04:03:41.739Z,5.100
2023-03-29T04:04:39.915Z,5.600
2023-03-29T04:05:40.338Z,5.800
2023-03-29T04:06:42.463Z,5.300
2023-03-29T04:07:39.776Z,5.000
2023-03-29T04:08:40.341Z,5.200
2023-03-29T04:09:39.825Z,5.500
2023-03-29T04:10:41.460Z,5.100
2023-03-29T04:11:41.633Z,5.700
2023-03-29T04:12:39.409Z,5.600
2023-03-29T04:13:39.996Z,4.900
2023-03-29T04:14:40.475Z,5.600
2023-03-29T04:15:40.075Z,5.900
2023-03-29T04:16:40.342Z,5.200
2023-03-29T04:17:40.283Z,5.500
2023-03-29T04:18:40.322Z,5.400
2023-03-29T04:19:40.287Z,5.400
2023-03-29T04:20:41.030Z,5.500
2023-03-29T04:21:40.173Z,5.600
2023-03-29T04:22:39.842Z,5.000
2023-03-29T04:25:40.637Z,5.200
2023-03-29T04:26:39.803Z,5.100
2023-03-29T04:27:40.426Z,6.000
2023-03-29T04:28:41.412Z,5.500
2023-03-29T04:29:39.716Z,5.400
2023-03-29T04:30:40.258Z,5.500
2023-03-29T04:31:39.930Z,5.500
2023-03-29T04:32:40.132Z,5.500
2023-03-29T04:33:39.721Z,5.400
2023-03-29T04:34:39.934Z,5.600
2023-03-29T04:35:40.148Z,4.500
2023-03-29T04:36:39.750Z,5.000
2023-03-29T04:37:40.144Z,5.500
2023-03-29T04:38:40.513Z,5.100
2023-03-29T04:40:39.369Z,4.900
2023-03-29T04:41:39.870Z,4.700
2023-03-29T04:42:42.347Z,5.100
2023-03-29T04:43:40.311Z,4.900
2023-03-29T04:44:41.488Z,5.100
2023-03-29T04:45:40.813Z,5.500
2023-03-29T04:46:41.118Z,4.700
2023-03-29T04:47:39.715Z,4.700
2023-03-29T04:48:40.278Z,5.300
2023-03-29T04:49:42.326Z,4.800
2023-03-29T04:51:40.686Z,5.300
2023-03-29T04:52:42.601Z,5.400
2023-03-29T04:53:40.114Z,4.800
2023-03-29T04:54:40.511Z,5.000
2023-03-29T04:56:40.751Z,5.200
2023-03-29T04:57:40.357Z,5.300
2023-03-29T04:58:43.245Z,5.000
2023-03-29T04:59:39.303Z,5.300
2023-03-29T05:00:39.296Z,5.200
2023-03-29T05:01:40.406Z,5.300
2023-03-29T05:02:40.593Z,5.600
2023-03-29T05:03:41.641Z,4.900
2023-03-29T05:04:40.045Z,5.000
2023-03-29T05:05:40.235Z,5.300
2023-03-29T05:06:41.584Z,5.200
2023-03-29T05:07:39.876Z,4.500
2023-03-29T05:08:40.195Z,5.100
2023-03-29T05:09:40.156Z,5.100
2023-03-29T05:10:39.462Z,5.500
2023-03-29T05:11:40.212Z,4.700
2023-03-29T05:12:40.789Z,5.500
2023-03-29T05:14:40.476Z,5.800
2023-03-29T05:15:41.418Z,5.700
2023-03-29T05:16:39.031Z,5.600
2023-03-29T05:17:39.612Z,5.300
2023-03-29T05:18:40.216Z,5.700
2023-03-29T05:19:39.992Z,5.600
2023-03-29T05:20:40.406Z,5.500
2023-03-29T05:21:40.378Z,5.600
2023-03-29T05:22:39.952Z,5.700
2023-03-29T05:23:40.573Z,6.100
2023-03-29T05:26:39.213Z,6.100
2023-03-29T05:27:40.242Z,5.800
2023-03-29T05:29:39.576Z,5.700
2023-03-29T05:30:40.484Z,5.600
2023-03-29T05:32:39.125Z,6.000
2023-03-29T05:34:40.500Z,6.400
2023-03-29T05:36:40.141Z,6.000
2023-03-29T05:37:39.655Z,5.500
2023-03-29T05:38:40.048Z,6.000
2023-03-29T05:39:39.616Z,5.500
2023-03-29T05:40:44.405Z,6.000
2023-03-29T05:42:39.968Z,5.600
2023-03-29T05:43:40.300Z,6.000
2023-03-29T05:44:39.559Z,5.800
2023-03-29T05:45:40.164Z,5.500
2023-03-29T05:47:40.635Z,5.900
2023-03-29T05:49:40.334Z,5.800
2023-03-29T05:50:41.048Z,6.300
2023-03-29T05:52:40.046Z,5.800
2023-03-29T05:53:40.972Z,6.200
2023-03-29T05:54:40.152Z,6.000
2023-03-29T05:55:40.187Z,6.200
2023-03-29T05:56:41.477Z,6.100
2023-03-29T05:57:40.579Z,5.700
2023-03-29T05:58:40.620Z,6.100
2023-03-29T05:59:39.686Z,6.100
2023-03-29T06:00:40.322Z,7.500
2023-03-29T06:02:40.718Z,5.800
2023-03-29T06:04:41.011Z,5.800
2023-03-29T06:05:40.225Z,6.400
2023-03-29T06:09:34.605Z,6.000
2023-03-29T06:10:34.837Z,6.500
2023-03-29T06:11:34.060Z,6.100
2023-03-29T06:12:34.232Z,6.900
2023-03-29T06:13:34.408Z,6.600
2023-03-29T06:14:34.576Z,6.400
2023-03-29T06:15:34.733Z,6.800
2023-03-29T06:16:33.969Z,6.600
2023-03-29T06:17:34.349Z,7.100
2023-03-29T06:18:34.849Z,6.900
2023-03-29T06:20:34.364Z,9.200
2023-03-29T06:21:34.741Z,7.200
2023-03-29T06:22:33.945Z,6.900
2023-03-29T06:23:34.143Z,6.300
2023-03-29T06:24:34.811Z,5.900
2023-03-29T06:25:34.052Z,8.700
2023-03-29T06:26:34.218Z,8.700
2023-03-29T06:27:34.409Z,7.700
2023-03-29T06:28:34.636Z,6.300
2023-03-29T06:29:34.778Z,7.100
2023-03-29T06:30:33.976Z,6.200
2023-03-29T06:31:34.701Z,6.900
2023-03-29T06:33:34.692Z,7.800
2023-03-29T06:34:34.647Z,7.000
2023-03-29T06:35:34.240Z,6.300
2023-03-29T06:36:34.582Z,6.500
2023-03-29T06:37:34.848Z,6.600
2023-03-29T06:38:34.128Z,6.000
2023-03-29T06:39:34.639Z,6.400
2023-03-29T06:40:34.939Z,5.900
2023-03-29T06:41:34.112Z,6.300
2023-03-29T06:42:39.220Z,5.700
2023-03-29T06:43:34.421Z,6.600
2023-03-29T06:44:33.994Z,6.800
2023-03-29T06:45:37.943Z,6.500
2023-03-29T06:46:34.096Z,7.000
2023-03-29T06:47:34.253Z,6.400
2023-03-29T06:48:34.879Z,6.400
2023-03-29T06:49:34.329Z,6.400
2023-03-29T06:50:33.855Z,6.900
2023-03-29T06:51:37.375Z,6.900
2023-03-29T06:54:34.099Z,7.200
2023-03-29T06:55:34.318Z,7.100
2023-03-29T06:56:34.435Z,7.100
2023-03-29T06:57:34.884Z,6.800
2023-03-29T06:58:34.370Z,7.200
2023-03-29T06:59:34.995Z,6.600
2023-03-29T07:01:34.963Z,7.100
2023-03-29T07:02:34.294Z,7.400
2023-03-29T07:03:34.962Z,7.100
2023-03-29T07:04:34.343Z,7.000
2023-03-29T07:05:34.764Z,6.900
2023-03-29T07:06:34.053Z,6.600
2023-03-29T07:07:34.450Z,7.100
2023-03-29T07:08:35.684Z,6.900
2023-03-29T07:09:35.349Z,6.400
2023-03-29T07:10:34.715Z,6.200
2023-03-29T07:12:34.358Z,7.000
2023-03-29T07:13:34.893Z,6.700
2023-03-29T07:14:34.085Z,7.900
2023-03-29T07:15:34.283Z,7.300
2023-03-29T07:16:34.769Z,7.300
2023-03-29T07:17:34.218Z,7.000
2023-03-29T07:18:34.587Z,7.600
2023-03-29T07:19:34.725Z,8.100
2023-03-29T07:20:33.979Z,8.000
2023-03-29T07:21:36.022Z,7.300
2023-03-29T07:22:34.532Z,7.600
2023-03-29T07:23:34.763Z,7.700
2023-03-29T07:24:33.912Z,8.500
2023-03-29T07:25:34.129Z,8.100
2023-03-29T07:26:49.184Z,7.200
2023-03-29T07:28:46.470Z,8.200
2023-03-29T07:29:46.658Z,7.900
2023-03-29T07:30:46.843Z,8.100
2023-03-29T07:31:46.137Z,10.300
2023-03-29T07:32:47.044Z,8.000
2023-03-29T07:33:47.174Z,7.400
2023-03-29T07:34:46.929Z,7.400
2023-03-29T07:35:46.403Z,7.400
2023-03-29T07:36:45.868Z,7.800
2023-03-29T07:37:46.017Z,7.700
2023-03-29T07:38:46.226Z,7.500
2023-03-29T07:39:46.402Z,7.100
2023-03-29T07:40:46.600Z,7.300
2023-03-29T07:41:46.764Z,7.200
2023-03-29T07:42:45.961Z,7.500
2023-03-29T07:43:46.140Z,7.100
2023-03-29T07:44:46.469Z,7.500
2023-03-29T07:45:46.949Z,7.200
2023-03-29T07:46:46.324Z,7.800
2023-03-29T07:47:46.566Z,7.300
2023-03-29T07:48:49.497Z,7.000
2023-03-29T07:49:47.323Z,7.600
2023-03-29T07:50:46.453Z,8.200
2023-03-29T07:51:46.608Z,7.300
2023-03-29T07:54:46.332Z,7.300
2023-03-29T07:55:47.282Z,7.800
2023-03-29T07:56:46.715Z,7.400
2023-03-29T07:58:46.395Z,7.600
2023-03-29T07:59:46.582Z,7.200
2023-03-29T08:00:46.940Z,7.100
2023-03-29T08:01:47.123Z,7.300
2023-03-29T08:02:46.966Z,6.800
2023-03-29T08:03:46.848Z,6.400
2023-03-29T08:05:56.020Z,7.500
2023-03-29T08:06:46.305Z,6.600
2023-03-29T08:07:46.456Z,7.700
2023-03-29T08:08:46.735Z,6.700
2023-03-29T08:09:45.929Z,7.100
2023-03-29T08:10:46.205Z,7.300
2023-03-29T08:11:46.452Z,6.500
2023-03-29T08:12:46.610Z,7.600
2023-03-29T08:13:46.814Z,6.600
2023-03-29T08:15:46.247Z,7.700
2023-03-29T08:16:48.144Z,6.500
2023-03-29T08:18:49.617Z,7.600
2023-03-29T08:19:50.748Z,7.400
2023-03-29T08:20:46.251Z,7.400
2023-03-29T08:21:46.380Z,6.600
2023-03-29T08:22:46.554Z,7.000
2023-03-29T08:23:46.861Z,6.900
2023-03-29T08:24:46.188Z,6.700
2023-03-29T08:25:46.312Z,6.900
2023-03-29T08:26:46.769Z,7.000
2023-03-29T08:28:46.159Z,7.300
2023-03-29T08:29:46.784Z,6.500
2023-03-29T08:30:46.073Z,6.800
2023-03-29T08:31:46.705Z,6.700
2023-03-29T08:33:46.569Z,6.400
2023-03-29T08:34:46.893Z,6.400
2023-03-29T08:35:46.069Z,7.600
2023-03-29T08:36:46.406Z,6.600
2023-03-29T08:37:46.616Z,6.200
2023-03-29T08:38:45.777Z,6.800
2023-03-29T08:39:45.929Z,7.600
2023-03-29T08:40:46.148Z,7.000
2023-03-29T08:41:46.431Z,6.800
2023-03-29T08:42:46.635Z,6.800
2023-03-29T08:43:46.793Z,6.100
2023-03-29T08:44:45.996Z,6.600
2023-03-29T08:45:46.940Z,6.700
2023-03-29T08:46:50.933Z,7.500
2023-03-29T08:47:46.392Z,6.900
2023-03-29T08:48:46.564Z,6.400
2023-03-29T08:49:46.776Z,6.600
2023-03-29T08:50:46.077Z,16.200
2023-03-29T08:51:46.281Z,9.600
2023-03-29T08:52:46.464Z,8.400
2023-03-29T08:53:46.669Z,8.900
2023-03-29T08:55:46.241Z,7.400
2023-03-29T08:56:51.049Z,6.000
2023-03-29T08:57:46.320Z,6.100
2023-03-29T08:58:46.589Z,6.500
2023-03-29T08:59:46.818Z,6.700
2023-03-29T09:00:46.046Z,6.600
2023-03-29T09:01:48.053Z,6.200
2023-03-29T09:02:47.185Z,6.400
2023-03-29T09:03:46.960Z,6.400
2023-03-29T09:04:46.257Z,5.900
2023-03-29T09:05:46.463Z,6.600
2023-03-29T09:06:46.713Z,6.200
2023-03-29T09:07:45.914Z,6.400
2023-03-29T09:08:46.444Z,6.100
2023-03-29T09:09:46.651Z,7.300
2023-03-29T09:10:45.807Z,6.600
2023-03-29T09:11:46.037Z,7.300
2023-03-29T09:12:46.352Z,7.800
2023-03-29T09:13:46.975Z,7.000
2023-03-29T09:14:46.179Z,6.400
2023-03-29T09:15:46.365Z,6.200
2023-03-29T09:16:47.031Z,7.100
2023-03-29T09:17:47.665Z,6.500
2023-03-29T09:18:47.328Z,6.700
2023-03-29T09:19:46.513Z,6.400
2023-03-29T09:20:46.761Z,6.100
2023-03-29T09:21:45.961Z,6.400
2023-03-29T09:22:46.196Z,5.500
2023-03-29T09:23:46.374Z,6.500
2023-03-29T09:24:46.575Z,6.900
2023-03-29T09:25:55.081Z,6.200
2023-03-29T09:26:46.252Z,6.700
2023-03-29T09:27:46.405Z,5.500
2023-03-29T09:29:45.894Z,5.900
2023-03-29T09:30:46.348Z,5.800
2023-03-29T09:31:46.823Z,6.200
2023-03-29T09:32:46.393Z,5.800
2023-03-29T09:34:48.356Z,6.500
2023-03-29T09:35:46.657Z,5.700
2023-03-29T09:37:46.298Z,6.800
2023-03-29T09:38:46.512Z,7.500
2023-03-29T09:39:46.784Z,7.000
2023-03-29T09:40:46.225Z,6.500
2023-03-29T09:41:46.452Z,6.900
2023-03-29T09:42:46.676Z,5.800
2023-03-29T09:43:45.797Z,5.800
2023-03-29T09:44:50.092Z,6.400
2023-03-29T09:45:46.320Z,5.600
2023-03-29T09:46:46.503Z,6.800
2023-03-29T09:47:46.930Z,5.700
2023-03-29T09:48:46.336Z,5.400
2023-03-29T09:49:48.522Z,6.100
2023-03-29T09:50:51.651Z,5.000
2023-03-29T09:51:45.846Z,5.500
2023-03-29T09:52:45.971Z,5.700
2023-03-29T09:53:46.276Z,5.300
2023-03-29T09:54:46.488Z,5.800
2023-03-29T09:55:48.417Z,4.700
2023-03-29T09:56:46.345Z,4.800
2023-03-29T09:57:46.958Z,4.900
2023-03-29T09:58:46.244Z,4.700
2023-03-29T09:59:46.679Z,4.600
2023-03-29T10:01:46.550Z,4.700
2023-03-29T10:02:46.434Z,4.700
2023-03-29T10:03:46.979Z,4.300
2023-03-29T10:05:46.555Z,3.300
2023-03-29T10:06:46.708Z,3.400
2023-03-29T10:07:45.839Z,3.000
2023-03-29T10:08:46.308Z,2.900
2023-03-29T10:09:47.022Z,3.200
2023-03-29T10:10:46.266Z,3.400
2023-03-29T10:11:46.438Z,3.500
2023-03-29T10:12:47.332Z,3.500
2023-03-29T10:13:47.467Z,3.500
2023-03-29T10:14:46.683Z,3.100
2023-03-29T10:15:50.940Z,3.800
2023-03-29T10:16:46.336Z,3.600
2023-03-29T10:17:46.845Z,3.800
2023-03-29T10:18:46.120Z,3.600
2023-03-29T10:19:46.317Z,3.100
2023-03-29T10:20:46.556Z,3.600
2023-03-29T10:21:46.833Z,3.300
2023-03-29T10:23:46.180Z,3.500
2023-03-29T10:24:46.438Z,3.300
2023-03-29T10:25:46.702Z,3.400
2023-03-29T10:26:45.917Z,3.300
2023-03-29T10:27:46.220Z,3.400
2023-03-29T10:28:46.468Z,3.600
2023-03-29T10:29:46.830Z,3.500
2023-03-29T10:30:46.132Z,3.900
2023-03-29T10:31:48.210Z,3.600
2023-03-29T10:32:46.642Z,3.500
2023-03-29T10:33:46.853Z,3.600
2023-03-29T10:34:45.988Z,3.500
2023-03-29T10:35:46.289Z,4.000
2023-03-29T10:36:46.616Z,3.800
2023-03-29T10:37:46.760Z,3.700
2023-03-29T10:38:46.194Z,3.500
2023-03-29T10:39:46.416Z,3.900
2023-03-29T10:40:46.756Z,3.800
2023-03-29T10:42:46.088Z,4.000
2023-03-29T10:43:46.264Z,4.200
2023-03-29T10:44:48.604Z,3.200
2023-03-29T10:45:46.814Z,4.000
2023-03-29T10:47:46.605Z,3.800
2023-03-29T10:48:45.907Z,3.700
2023-03-29T10:49:46.125Z,3.400
2023-03-29T10:50:46.305Z,3.700
2023-03-29T10:51:46.497Z,3.100
2023-03-29T10:52:46.761Z,3.200
2023-03-29T10:53:46.099Z,3.200
2023-03-29T10:54:46.363Z,3.000
2023-03-29T10:55:46.565Z,2.700
2023-03-29T10:56:46.761Z,3.400
2023-03-29T10:57:46.597Z,3.300
2023-03-29T10:58:46.830Z,3.400
2023-03-29T11:00:46.345Z,3.100
2023-03-29T11:01:46.911Z,2.900
2023-03-29T11:02:46.650Z,3.100
2023-03-29T11:03:48.512Z,3.100
2023-03-29T11:04:45.912Z,3.000
2023-03-29T11:05:46.178Z,3.100
2023-03-29T11:06:46.368Z,2.700
2023-03-29T11:07:46.602Z,3.100
2023-03-29T11:08:46.408Z,3.100
2023-03-29T11:09:46.688Z,3.300
2023-03-29T11:11:46.168Z,3.000
2023-03-29T11:12:49.475Z,3.100
2023-03-29T11:13:46.690Z,2.800
2023-03-29T11:15:46.179Z,3.200
2023-03-29T11:16:46.642Z,3.400
2023-03-29T11:17:46.125Z,2.900
2023-03-29T11:18:46.601Z,3.000
2023-03-29T11:19:46.979Z,3.200
2023-03-29T11:20:46.202Z,2.600
2023-03-29T11:21:46.383Z,2.900
2023-03-29T11:22:46.689Z,2.400
2023-03-29T11:23:45.861Z,3.300
2023-03-29T11:24:47.230Z,6.400
2023-03-29T11:25:46.437Z,3.700
2023-03-29T11:26:46.724Z,2.500
2023-03-29T11:27:46.021Z,2.900
2023-03-29T11:28:46.309Z,3.000
2023-03-29T11:29:46.745Z,2.700
2023-03-29T11:30:46.369Z,2.600
2023-03-29T11:31:47.076Z,2.700
2023-03-29T11:32:46.484Z,3.200
2023-03-29T11:33:46.838Z,3.100
2023-03-29T11:35:46.364Z,3.200
2023-03-29T11:36:46.007Z,3.000
2023-03-29T11:37:46.232Z,3.200
2023-03-29T11:38:46.432Z,2.900
2023-03-29T11:39:46.749Z,2.500
2023-03-29T11:40:45.938Z,2.800
2023-03-29T11:41:46.261Z,3.500
2023-03-29T11:42:46.559Z,2.700
2023-03-29T11:43:46.791Z,3.100
2023-03-29T11:44:46.523Z,2.600
2023-03-29T11:45:45.921Z,2.800
2023-03-29T11:46:46.459Z,2.500
2023-03-29T11:47:47.115Z,2.800
2023-03-29T11:48:46.353Z,2.800
2023-03-29T11:49:46.653Z,2.800
2023-03-29T11:50:47.249Z,2.900
2023-03-29T11:51:46.469Z,2.700
2023-03-29T11:52:46.656Z,2.700
2023-03-29T11:53:45.857Z,2.400
2023-03-29T11:54:46.096Z,2.600
2023-03-29T11:55:46.304Z,2.500
2023-03-29T11:56:46.491Z,2.600
2023-03-29T11:57:46.859Z,3.000
2023-03-29T11:58:47.533Z,2.300
2023-03-29T11:59:46.776Z,2.900
2023-03-29T12:00:46.003Z,2.800
2023-03-29T12:01:46.493Z,3.100
2023-03-29T12:02:47.241Z,3.200
2023-03-29T12:03:47.031Z,3.200
2023-03-29T12:04:46.960Z,3.000
2023-03-29T12:05:46.202Z,2.700
2023-03-29T12:06:46.500Z,2.800
2023-03-29T12:07:46.809Z,3.000
2023-03-29T12:09:46.728Z,3.200
2023-03-29T12:10:47.975Z,3.100
2023-03-29T12:12:46.467Z,3.100
2023-03-29T12:13:46.817Z,3.400
2023-03-29T12:14:46.204Z,2.800
2023-03-29T12:15:46.437Z,2.900
2023-03-29T12:16:46.975Z,2.800
2023-03-29T12:17:46.613Z,2.700
2023-03-29T12:18:46.023Z,2.600
2023-03-29T12:19:46.594Z,2.700
2023-03-29T12:20:46.834Z,3.400
2023-03-29T12:21:46.033Z,2.600
2023-03-29T12:22:46.434Z,2.500
2023-03-29T12:23:46.772Z,3.100
2023-03-29T12:24:45.989Z,2.600
2023-03-29T12:25:46.360Z,2.300
2023-03-29T12:26:46.621Z,2.400
2023-03-29T12:27:45.932Z,2.500
2023-03-29T12:28:46.133Z,2.300
2023-03-29T12:29:46.343Z,2.500
2023-03-29T12:30:48.789Z,2.300
2023-03-29T12:31:46.031Z,2.600
2023-03-29T12:32:46.509Z,3.000
2023-03-29T12:33:48.956Z,3.000
2023-03-29T12:34:46.141Z,2.300
2023-03-29T12:35:46.404Z,2.700
2023-03-29T12:36:46.761Z,2.600
2023-03-29T12:38:47.048Z,2.900
2023-03-29T12:39:46.448Z,3.000
2023-03-29T12:40:46.644Z,2.700
2023-03-29T12:44:46.565Z,2.600
2023-03-29T12:45:46.825Z,2.500
2023-03-29T12:46:46.240Z,2.200
2023-03-29T12:47:46.845Z,2.100
2023-03-29T12:48:46.253Z,2.500
2023-03-29T12:49:46.432Z,2.200
2023-03-29T12:50:46.669Z,2.300
2023-03-29T12:51:45.828Z,2.300
2023-03-29T12:52:45.997Z,2.800
2023-03-29T12:53:46.201Z,2.400
2023-03-29T12:54:46.470Z,2.900
2023-03-29T12:55:46.755Z,2.800
2023-03-29T12:57:46.609Z,2.600
2023-03-29T12:58:46.803Z,2.800
2023-03-29T12:59:46.030Z,3.400
2023-03-29T13:00:46.438Z,3.000
2023-03-29T13:01:47.147Z,2.800
2023-03-29T13:02:46.934Z,3.300
2023-03-29T13:03:46.508Z,3.200
2023-03-29T13:04:46.871Z,3.000
2023-03-29T13:05:46.361Z,3.100
2023-03-29T13:06:46.915Z,3.100
2023-03-29T13:07:47.719Z,3.600
2023-03-29T13:08:47.190Z,3.100
2023-03-29T13:11:46.856Z,3.800
2023-03-29T13:12:49.100Z,2.900
2023-03-29T13:13:46.648Z,2.800
2023-03-29T13:16:46.773Z,2.800
2023-03-29T13:17:46.248Z,2.800
2023-03-29T13:18:46.633Z,2.900
2023-03-29T13:19:46.950Z,2.700
2023-03-29T13:21:46.434Z,3.000
2023-03-29T13:22:46.721Z,3.500
2023-03-29T13:23:47.493Z,3.100
2023-03-29T13:24:46.730Z,3.000
2023-03-29T13:25:45.856Z,2.700
2023-03-29T13:26:46.108Z,3.000
2023-03-29T13:27:46.367Z,2.800
2023-03-29T13:28:46.590Z,2.700
2023-03-29T13:29:46.920Z,2.200
2023-03-29T13:30:46.205Z,2.600
2023-03-29T13:31:46.996Z,2.700
2023-03-29T13:32:46.885Z,2.900
2023-03-29T13:33:46.229Z,2.700
2023-03-29T13:34:46.623Z,3.000
2023-03-29T13:35:46.901Z,2.700
2023-03-29T13:36:48.623Z,2.600
2023-03-29T13:37:46.868Z,2.500
2023-03-29T13:39:46.366Z,2.700
2023-03-29T13:40:46.737Z,2.400
2023-03-29T13:41:45.957Z,2.500
2023-03-29T13:42:47.188Z,2.200
2023-03-29T13:43:46.473Z,1.900
2023-03-29T13:44:46.673Z,2.200
2023-03-29T13:45:45.880Z,2.500
2023-03-29T13:46:46.140Z,2.300
2023-03-29T13:47:54.824Z,2.100
2023-03-29T13:49:51.213Z,2.400
2023-03-29T13:50:49.845Z,2.900
2023-03-29T13:51:48.964Z,2.300
2023-03-29T13:52:49.473Z,2.500
2023-03-29T13:53:49.820Z,2.700
2023-03-29T13:54:49.104Z,2.200
2023-03-29T13:55:52.748Z,2.700
2023-03-29T13:56:48.965Z,2.500
2023-03-29T13:57:49.427Z,2.900
2023-03-29T13:58:48.927Z,2.400
2023-03-29T13:59:49.145Z,2.800
2023-03-29T14:00:49.509Z,3.200
2023-03-29T14:01:48.963Z,2.700
2023-03-29T14:02:50.246Z,3.100
2023-03-29T14:03:50.883Z,3.100
2023-03-29T14:04:49.936Z,2.600
2023-03-29T14:05:49.272Z,3.000
2023-03-29T14:06:49.537Z,2.700
2023-03-29T14:07:49.876Z,2.800
2023-03-29T14:08:51.653Z,2.900
2023-03-29T14:09:50.048Z,2.600
2023-03-29T14:12:49.863Z,3.100
2023-03-29T14:14:58.645Z,3.200
2023-03-29T14:17:49.117Z,3.000
2023-03-29T14:18:49.668Z,3.100
2023-03-29T14:19:48.873Z,3.400
2023-03-29T14:20:49.207Z,3.500
2023-03-29T14:21:49.472Z,3.300